Hovedside
METAR-TAF:

METAR-TAF

Lufthavner :

Jyväskylä lufthavn

Jyväskylä, Finland

breddegrad: 62-24N, lengdegrad: 025-41E, høyde over havet: 141 m

Gjeldene værobservasjon

Denne rapporten ble laget for 51 minutter siden, klokken 16:20 UTC
Vind 6 kt fra Nord, skiftende mellom Nordvest og Nord-nordøst
Temperatur 20°C
Luftfuktighet 40%
Trykk 1015 hPa
Sikt 10 km eller mer
ingen skyer under 1500 m og ingen bygeskyer

METAR: EFJY 241620Z 35006KT 320V020 CAVOK 20/06 Q1015

Tid: 20:11 (17:11 UTC)

Varsel

Denne rapporten ble laget for 2 timer og 40 minutter siden, klokken 14:31 UTC
Varsel gyldig fra 24. klokken 15 UTC til 25. klokken 15 UTC
Vind 9 kt fra Vest-nordvest
Sikt 10 km eller mer
Få skyer i en høyde av 4500 ft
Midlertidig
fra 24. klokken 15 UTC til 24. klokken 16 UTC
Få skyer i en høyde av 5000 ft, Tårnskyer (cumulus).

TAF: EFJY 241431Z 2415/2515 30009KT 9999 FEW045 TEMPO 2415/2416 FEW050TCU

Værobservasjoner og værvarsel for over 4000 flyplasser (METAR- og TAF-rapporter).

Tilgjengelige stasjoner er representert av de røde og gule prikkene på kartet.

Hold musepekeren over prikken for å se navnet på stasjonen.

Klikk så for å se værobservasjoner og -varsler.

For å forandre kartet kan du klikke på den grønne knappen med svart kryss for å zoome inn, på den grønne knappen med strek for å zoome ut, eller på de grønne pilene for å se tilstøtende kart.


METAR-TAF: